Ímóti Miđvági

Vevmynd ímóti Miđvági

Terminalur Ímóti Sřrvági


Veđriđ á flogvřllinum (metar):

EKVG 241550Z AUTO 32022KT 9999NDV FEW016/// BKN028/// 05/01 Q1010

METAR / TAF frá DMI fyri Vágar                      Veđurtíđindi frá Vága Floghavn

Atlantic Airways

Atlantic Airways heimasíđa

Tíđindi    .

26. januar 2015
Áheitan viđvíkjandi lasaraljós

Veđriđ

Kunning

Vevmyndir

Terminalur